sensor_id;sensor_type;location;lat;lon;timestamp;pressure;altitude;pressure_sealevel;temperature;humidity
21102;BME280;10709;49.006;12.100;2023-12-29T00:04:18;48996.78;;;-146.00;100.00
21102;BME280;10709;49.006;12.100;2023-12-29T00:07:52;49000.72;;;-146.00;100.00
21102;BME280;10709;49.006;12.100;2023-12-29T00:12:04;49006.59;;;-146.00;100.00
21102;BME280;10709;49.006;12.100;2023-12-29T00:15:33;49004.63;;;-146.00;100.00
21102;BME280;10709;49.006;12.100;2023-12-29T00:23:25;49008.53;;;-146.00;100.00
21102;BME280;10709;49.006;12.100;2023-12-29T00:27:29;49006.59;;;-146.00;100.00
21102;BME280;10709;49.006;12.100;2023-12-29T00:31:17;49008.53;;;-146.00;100.00
21102;BME280;10709;49.006;12.100;2023-12-29T00:35:03;48992.88;;;-146.00;100.00
21102;BME280;10709;49.006;12.100;2023-12-29T00:46:00;48996.78;;;-146.00;100.00
21102;BME280;10709;49.006;12.100;2023-12-29T00:49:39;49008.53;;;-146.00;100.00
21102;BME280;10709;49.006;12.100;2023-12-29T00:53:47;49020.31;;;-146.00;100.00
21102;BME280;10709;49.006;12.100;2023-12-29T00:57:37;49008.53;;;-146.00;100.00
21102;BME280;10709;49.006;12.100;2023-12-29T01:04:38;49024.22;;;-146.00;100.00
21102;BME280;10709;49.006;12.100;2023-12-29T01:09:07;49010.50;;;-146.00;100.00
21102;BME280;10709;49.006;12.100;2023-12-29T01:12:24;48996.78;;;-146.00;100.00
21102;BME280;10709;49.006;12.100;2023-12-29T01:19:29;48998.75;;;-146.00;100.00
21102;BME280;10709;49.006;12.100;2023-12-29T01:23:28;49006.59;;;-146.00;100.00
21102;BME280;10709;49.006;12.100;2023-12-29T01:26:59;49008.53;;;-146.00;100.00
21102;BME280;10709;49.006;12.100;2023-12-29T01:30:56;49022.25;;;-146.00;100.00
21102;BME280;10709;49.006;12.100;2023-12-29T01:34:52;49020.31;;;-146.00;100.00
21102;BME280;10709;49.006;12.100;2023-12-29T01:38:47;49012.47;;;-146.00;100.00
21102;BME280;10709;49.006;12.100;2023-12-29T01:43:13;49002.66;;;-146.00;100.00
21102;BME280;10709;49.006;12.100;2023-12-29T01:51:09;49018.34;;;-146.00;100.00
21102;BME280;10709;49.006;12.100;2023-12-29T02:02:32;49014.41;;;-146.00;100.00
21102;BME280;10709;49.006;12.100;2023-12-29T02:06:09;49014.41;;;-146.00;100.00
21102;BME280;10709;49.006;12.100;2023-12-29T02:13:51;49032.06;;;-146.00;100.00
21102;BME280;10709;49.006;12.100;2023-12-29T02:25:43;49000.72;;;-146.00;100.00
21102;BME280;10709;49.006;12.100;2023-12-29T02:29:45;49026.19;;;-146.00;100.00
21102;BME280;10709;49.006;12.100;2023-12-29T02:33:19;49008.53;;;-146.00;100.00
21102;BME280;10709;49.006;12.100;2023-12-29T02:45:29;48992.88;;;-146.00;100.00
21102;BME280;10709;49.006;12.100;2023-12-29T02:57:14;49002.66;;;-146.00;100.00
21102;BME280;10709;49.006;12.100;2023-12-29T03:00:27;48992.88;;;-146.00;100.00
21102;BME280;10709;49.006;12.100;2023-12-29T03:04:28;48988.94;;;-146.00;100.00
21102;BME280;10709;49.006;12.100;2023-12-29T03:08:30;48996.78;;;-146.00;100.00
21102;BME280;10709;49.006;12.100;2023-12-29T03:12:34;48981.13;;;-146.00;100.00
21102;BME280;10709;49.006;12.100;2023-12-29T03:16:29;48990.91;;;-146.00;100.00
21102;BME280;10709;49.006;12.100;2023-12-29T03:24:06;48981.13;;;-146.00;100.00
21102;BME280;10709;49.006;12.100;2023-12-29T03:32:05;48988.94;;;-146.00;100.00
21102;BME280;10709;49.006;12.100;2023-12-29T03:39:48;48983.06;;;-146.00;100.00
21102;BME280;10709;49.006;12.100;2023-12-29T03:43:37;48996.78;;;-146.00;100.00
21102;BME280;10709;49.006;12.100;2023-12-29T03:47:33;48990.91;;;-146.00;100.00
21102;BME280;10709;49.006;12.100;2023-12-29T03:54:46;48992.88;;;-146.00;100.00
21102;BME280;10709;49.006;12.100;2023-12-29T03:58:30;48988.94;;;-146.00;100.00
21102;BME280;10709;49.006;12.100;2023-12-29T04:02:49;48973.28;;;-146.00;100.00
21102;BME280;10709;49.006;12.100;2023-12-29T04:06:47;48965.44;;;-146.00;100.00
21102;BME280;10709;49.006;12.100;2023-12-29T04:10:38;48981.13;;;-146.00;100.00
21102;BME280;10709;49.006;12.100;2023-12-29T04:21:34;48994.84;;;-146.00;100.00
21102;BME280;10709;49.006;12.100;2023-12-29T04:25:29;48992.88;;;-146.00;100.00
21102;BME280;10709;49.006;12.100;2023-12-29T04:33:08;49008.53;;;-146.00;100.00
21102;BME280;10709;49.006;12.100;2023-12-29T04:55:45;49016.38;;;-146.00;100.00
21102;BME280;10709;49.006;12.100;2023-12-29T05:18:27;49024.22;;;-146.00;100.00
21102;BME280;10709;49.006;12.100;2023-12-29T05:30:13;49028.13;;;-146.00;100.00
21102;BME280;10709;49.006;12.100;2023-12-29T05:33:45;49004.63;;;-146.00;100.00
21102;BME280;10709;49.006;12.100;2023-12-29T05:36:12;49014.41;;;-146.00;100.00
21102;BME280;10709;49.006;12.100;2023-12-29T05:38:39;49032.06;;;-146.00;100.00
21102;BME280;10709;49.006;12.100;2023-12-29T05:41:07;49012.47;;;-146.00;100.00
21102;BME280;10709;49.006;12.100;2023-12-29T05:43:35;48996.78;;;-146.00;100.00
21102;BME280;10709;49.006;12.100;2023-12-29T05:46:02;49008.53;;;-146.00;100.00
21102;BME280;10709;49.006;12.100;2023-12-29T05:48:29;49008.53;;;-146.00;100.00
21102;BME280;10709;49.006;12.100;2023-12-29T05:50:56;49012.47;;;-146.00;100.00
21102;BME280;10709;49.006;12.100;2023-12-29T05:53:22;49022.25;;;-146.00;100.00
21102;BME280;10709;49.006;12.100;2023-12-29T05:55:49;49002.66;;;-146.00;100.00
21102;BME280;10709;49.006;12.100;2023-12-29T05:58:16;49012.47;;;-146.00;100.00
21102;BME280;10709;49.006;12.100;2023-12-29T06:00:43;49018.34;;;-146.00;100.00
21102;BME280;10709;49.006;12.100;2023-12-29T06:03:13;49026.19;;;-146.00;100.00
21102;BME280;10709;49.006;12.100;2023-12-29T06:05:40;49012.47;;;-146.00;100.00
21102;BME280;10709;49.006;12.100;2023-12-29T06:08:08;49032.06;;;-146.00;100.00
21102;BME280;10709;49.006;12.100;2023-12-29T06:10:35;49028.13;;;-146.00;100.00
21102;BME280;10709;49.006;12.100;2023-12-29T06:13:03;49032.06;;;-146.00;100.00
21102;BME280;10709;49.006;12.100;2023-12-29T06:15:29;49039.88;;;-146.00;100.00
21102;BME280;10709;49.006;12.100;2023-12-29T06:17:56;49026.19;;;-146.00;100.00
21102;BME280;10709;49.006;12.100;2023-12-29T06:20:24;49022.25;;;-146.00;100.00
21102;BME280;10709;49.006;12.100;2023-12-29T06:22:50;49018.34;;;-146.00;100.00
21102;BME280;10709;49.006;12.100;2023-12-29T06:25:18;49004.63;;;-146.00;100.00
21102;BME280;10709;49.006;12.100;2023-12-29T06:27:45;49012.47;;;-146.00;100.00
21102;BME280;10709;49.006;12.100;2023-12-29T06:30:14;49004.63;;;-146.00;100.00
21102;BME280;10709;49.006;12.100;2023-12-29T06:32:41;49016.38;;;-146.00;100.00
21102;BME280;10709;49.006;12.100;2023-12-29T06:35:09;49008.53;;;-146.00;100.00
21102;BME280;10709;49.006;12.100;2023-12-29T06:37:38;48996.78;;;-146.00;100.00
21102;BME280;10709;49.006;12.100;2023-12-29T06:40:09;49014.41;;;-146.00;100.00
21102;BME280;10709;49.006;12.100;2023-12-29T06:42:36;49018.34;;;-146.00;100.00
21102;BME280;10709;49.006;12.100;2023-12-29T06:45:04;49020.31;;;-146.00;100.00
21102;BME280;10709;49.006;12.100;2023-12-29T06:47:35;49035.97;;;-146.00;100.00
21102;BME280;10709;49.006;12.100;2023-12-29T07:15:03;49000.72;;;-146.00;100.00
21102;BME280;10709;49.006;12.100;2023-12-29T07:21:59;49026.19;;;-146.00;100.00
21102;BME280;10709;49.006;12.100;2023-12-29T07:25:54;49012.47;;;-146.00;100.00
21102;BME280;10709;49.006;12.100;2023-12-29T07:29:41;49032.06;;;-146.00;100.00
21102;BME280;10709;49.006;12.100;2023-12-29T07:33:49;49016.38;;;-146.00;100.00
21102;BME280;10709;49.006;12.100;2023-12-29T07:41:09;49026.19;;;-146.00;100.00
21102;BME280;10709;49.006;12.100;2023-12-29T07:49:26;49024.22;;;-146.00;100.00
21102;BME280;10709;49.006;12.100;2023-12-29T07:53:20;49020.31;;;-146.00;100.00
21102;BME280;10709;49.006;12.100;2023-12-29T08:08:47;49047.72;;;-146.00;100.00
21102;BME280;10709;49.006;12.100;2023-12-29T08:11:18;49035.97;;;-146.00;100.00
21102;BME280;10709;49.006;12.100;2023-12-29T08:13:47;49041.84;;;-146.00;99.83
21102;BME280;10709;49.006;12.100;2023-12-29T08:16:15;49034.00;;;-146.00;99.92
21102;BME280;10709;49.006;12.100;2023-12-29T08:18:43;49039.88;;;-146.00;100.00
21102;BME280;10709;49.006;12.100;2023-12-29T08:21:21;49028.13;;;-146.00;99.77
21102;BME280;10709;49.006;12.100;2023-12-29T08:23:48;49039.88;;;-146.00;98.81
21102;BME280;10709;49.006;12.100;2023-12-29T08:26:15;49041.84;;;-146.00;98.57
21102;BME280;10709;49.006;12.100;2023-12-29T08:28:42;49032.06;;;-146.00;98.40
21102;BME280;10709;49.006;12.100;2023-12-29T08:31:09;49069.28;;;-146.00;98.16
21102;BME280;10709;49.006;12.100;2023-12-29T08:33:36;49047.72;;;-146.00;98.38
21102;BME280;10709;49.006;12.100;2023-12-29T08:36:03;49063.41;;;-146.00;96.95
21102;BME280;10709;49.006;12.100;2023-12-29T08:38:30;49063.41;;;-146.00;97.76
21102;BME280;10709;49.006;12.100;2023-12-29T08:41:00;49059.47;;;-146.00;96.61
21102;BME280;10709;49.006;12.100;2023-12-29T08:43:26;49047.72;;;-146.00;97.06
21102;BME280;10709;49.006;12.100;2023-12-29T08:45:53;49047.72;;;-146.00;96.88
21102;BME280;10709;49.006;12.100;2023-12-29T08:48:20;49067.31;;;-146.00;96.59
21102;BME280;10709;49.006;12.100;2023-12-29T08:50:49;49055.56;;;-146.00;97.05
21102;BME280;10709;49.006;12.100;2023-12-29T08:53:17;49063.41;;;-146.00;96.07
21102;BME280;10709;49.006;12.100;2023-12-29T08:55:45;49047.72;;;-146.00;95.39
21102;BME280;10709;49.006;12.100;2023-12-29T08:58:12;49047.72;;;-146.00;95.64
21102;BME280;10709;49.006;12.100;2023-12-29T09:00:39;49034.00;;;-146.00;96.35
21102;BME280;10709;49.006;12.100;2023-12-29T09:03:07;49067.31;;;-146.00;96.93
21102;BME280;10709;49.006;12.100;2023-12-29T09:05:34;49079.06;;;-146.00;96.58
21102;BME280;10709;49.006;12.100;2023-12-29T09:08:00;49053.59;;;-146.00;96.64
21102;BME280;10709;49.006;12.100;2023-12-29T09:10:29;49081.03;;;-146.00;96.60
21102;BME280;10709;49.006;12.100;2023-12-29T09:12:55;49032.06;;;-146.00;96.29
21102;BME280;10709;49.006;12.100;2023-12-29T09:15:23;49055.56;;;-146.00;95.08
21102;BME280;10709;49.006;12.100;2023-12-29T09:17:50;49069.28;;;-146.00;95.05
21102;BME280;10709;49.006;12.100;2023-12-29T09:20:34;49079.06;;;-146.00;95.07
21102;BME280;10709;49.006;12.100;2023-12-29T09:28:12;49059.47;;;-146.00;94.51
21102;BME280;10709;49.006;12.100;2023-12-29T09:32:20;49083.00;;;-146.00;94.57
21102;BME280;10709;49.006;12.100;2023-12-29T09:40:23;49071.25;;;-146.00;94.97
21102;BME280;10709;49.006;12.100;2023-12-29T09:47:42;49079.06;;;-146.00;94.54
21102;BME280;10709;49.006;12.100;2023-12-29T09:51:19;49047.72;;;-146.00;94.48
21102;BME280;10709;49.006;12.100;2023-12-29T09:55:14;49057.53;;;-146.00;94.84
21102;BME280;10709;49.006;12.100;2023-12-29T10:07:18;49055.56;;;-146.00;94.87
21102;BME280;10709;49.006;12.100;2023-12-29T10:14:37;49057.53;;;-146.00;95.17
21102;BME280;10709;49.006;12.100;2023-12-29T10:18:22;49075.16;;;-146.00;95.21
21102;BME280;10709;49.006;12.100;2023-12-29T10:21:29;49053.59;;;-146.00;94.91
21102;BME280;10709;49.006;12.100;2023-12-29T10:24:20;49065.34;;;-146.00;94.86
21102;BME280;10709;49.006;12.100;2023-12-29T10:28:05;49051.66;;;-146.00;94.97
21102;BME280;10709;49.006;12.100;2023-12-29T10:31:34;49081.03;;;-146.00;95.22
21102;BME280;10709;49.006;12.100;2023-12-29T10:35:16;49063.41;;;-146.00;95.41
21102;BME280;10709;49.006;12.100;2023-12-29T10:38:38;49047.72;;;-146.00;96.65
21102;BME280;10709;49.006;12.100;2023-12-29T10:42:26;49032.06;;;-146.00;97.24
21102;BME280;10709;49.006;12.100;2023-12-29T10:46:25;49061.44;;;-146.00;96.96
21102;BME280;10709;49.006;12.100;2023-12-29T10:50:16;49073.19;;;-146.00;96.59
21102;BME280;10709;49.006;12.100;2023-12-29T10:54:00;49075.16;;;-146.00;96.09
21102;BME280;10709;49.006;12.100;2023-12-29T10:57:41;49035.97;;;-146.00;96.31
21102;BME280;10709;49.006;12.100;2023-12-29T11:00:21;49067.31;;;-146.00;96.12
21102;BME280;10709;49.006;12.100;2023-12-29T11:04:08;49055.56;;;-146.00;96.32
21102;BME280;10709;49.006;12.100;2023-12-29T11:07:39;49059.47;;;-146.00;95.89
21102;BME280;10709;49.006;12.100;2023-12-29T11:11:12;49055.56;;;-146.00;95.60
21102;BME280;10709;49.006;12.100;2023-12-29T11:14:11;49067.31;;;-146.00;96.60
21102;BME280;10709;49.006;12.100;2023-12-29T11:16:44;49063.41;;;-146.00;96.36
21102;BME280;10709;49.006;12.100;2023-12-29T11:20:08;49071.25;;;-146.00;96.54
21102;BME280;10709;49.006;12.100;2023-12-29T11:23:10;49075.16;;;-146.00;96.42
21102;BME280;10709;49.006;12.100;2023-12-29T11:26:29;49075.16;;;-146.00;96.50
21102;BME280;10709;49.006;12.100;2023-12-29T11:30:17;49059.47;;;-146.00;97.01
21102;BME280;10709;49.006;12.100;2023-12-29T11:37:38;49077.13;;;-146.00;97.81
21102;BME280;10709;49.006;12.100;2023-12-29T11:41:17;49075.16;;;-146.00;97.95
21102;BME280;10709;49.006;12.100;2023-12-29T11:44:28;49063.41;;;-146.00;98.24
21102;BME280;10709;49.006;12.100;2023-12-29T11:47:45;49059.47;;;-146.00;97.87
21102;BME280;10709;49.006;12.100;2023-12-29T11:51:35;49057.53;;;-146.00;97.47
21102;BME280;10709;49.006;12.100;2023-12-29T11:58:46;49037.94;;;-146.00;98.33
21102;BME280;10709;49.006;12.100;2023-12-29T12:02:00;49024.22;;;-146.00;98.77
21102;BME280;10709;49.006;12.100;2023-12-29T12:05:49;49055.56;;;-146.00;99.18
21102;BME280;10709;49.006;12.100;2023-12-29T12:09:27;49047.72;;;-146.00;98.88
21102;BME280;10709;49.006;12.100;2023-12-29T12:12:41;49043.81;;;-146.00;98.67
21102;BME280;10709;49.006;12.100;2023-12-29T12:16:48;49063.41;;;-146.00;98.15
21102;BME280;10709;49.006;12.100;2023-12-29T12:20:13;49067.31;;;-146.00;98.58
21102;BME280;10709;49.006;12.100;2023-12-29T12:24:19;49055.56;;;-146.00;98.65
21102;BME280;10709;49.006;12.100;2023-12-29T12:28:24;49043.81;;;-146.00;98.72
21102;BME280;10709;49.006;12.100;2023-12-29T12:32:09;49063.41;;;-146.00;97.85
21102;BME280;10709;49.006;12.100;2023-12-29T12:35:46;49051.66;;;-146.00;97.05
21102;BME280;10709;49.006;12.100;2023-12-29T12:39:44;49047.72;;;-146.00;97.59
21102;BME280;10709;49.006;12.100;2023-12-29T12:43:29;49071.25;;;-146.00;96.89
21102;BME280;10709;49.006;12.100;2023-12-29T12:47:25;49079.06;;;-146.00;96.60
21102;BME280;10709;49.006;12.100;2023-12-29T12:51:31;49067.31;;;-146.00;96.35
21102;BME280;10709;49.006;12.100;2023-12-29T12:55:02;49083.00;;;-146.00;96.37
21102;BME280;10709;49.006;12.100;2023-12-29T12:58:05;49110.41;;;-146.00;95.77
21102;BME280;10709;49.006;12.100;2023-12-29T13:02:03;49071.25;;;-146.00;95.50
21102;BME280;10709;49.006;12.100;2023-12-29T13:05:35;49055.56;;;-146.00;94.78
21102;BME280;10709;49.006;12.100;2023-12-29T13:09:18;49083.00;;;-146.00;93.71
21102;BME280;10709;49.006;12.100;2023-12-29T13:12:38;49092.78;;;-146.00;93.50
21102;BME280;10709;49.006;12.100;2023-12-29T13:20:02;49067.31;;;-146.00;93.96
21102;BME280;10709;49.006;12.100;2023-12-29T13:27:48;49083.00;;;-146.00;92.10
21102;BME280;10709;49.006;12.100;2023-12-29T13:31:35;49106.50;;;-146.00;92.15
21102;BME280;10709;49.006;12.100;2023-12-29T13:39:14;49098.66;;;-146.00;91.81
21102;BME280;10709;49.006;12.100;2023-12-29T13:42:48;49098.66;;;-146.00;91.56
21102;BME280;10709;49.006;12.100;2023-12-29T13:46:33;49102.59;;;-146.00;92.28
21102;BME280;10709;49.006;12.100;2023-12-29T13:50:09;49122.19;;;-146.00;92.07
21102;BME280;10709;49.006;12.100;2023-12-29T14:06:03;49102.59;;;-146.00;92.14
21102;BME280;10709;49.006;12.100;2023-12-29T14:09:54;49075.16;;;-146.00;92.30
21102;BME280;10709;49.006;12.100;2023-12-29T14:13:43;49102.59;;;-146.00;92.25
21102;BME280;10709;49.006;12.100;2023-12-29T14:16:58;49102.59;;;-146.00;92.15
21102;BME280;10709;49.006;12.100;2023-12-29T14:27:34;49094.75;;;-146.00;92.44
21102;BME280;10709;49.006;12.100;2023-12-29T14:31:04;49090.81;;;-146.00;92.39
21102;BME280;10709;49.006;12.100;2023-12-29T14:34:44;49090.81;;;-146.00;92.75
21102;BME280;10709;49.006;12.100;2023-12-29T14:38:33;49094.75;;;-146.00;92.84
21102;BME280;10709;49.006;12.100;2023-12-29T14:41:48;49083.00;;;-146.00;93.16
21102;BME280;10709;49.006;12.100;2023-12-29T14:45:08;49086.91;;;-146.00;93.00
21102;BME280;10709;49.006;12.100;2023-12-29T14:48:22;49088.88;;;-146.00;93.29
21102;BME280;10709;49.006;12.100;2023-12-29T14:51:40;49079.06;;;-146.00;93.27
21102;BME280;10709;49.006;12.100;2023-12-29T14:58:26;49094.75;;;-146.00;93.65
21102;BME280;10709;49.006;12.100;2023-12-29T15:02:12;49079.06;;;-146.00;93.60
21102;BME280;10709;49.006;12.100;2023-12-29T15:05:54;49094.75;;;-146.00;93.43
21102;BME280;10709;49.006;12.100;2023-12-29T15:09:37;49086.91;;;-146.00;93.34
21102;BME280;10709;49.006;12.100;2023-12-29T15:12:57;49073.19;;;-146.00;93.41
21102;BME280;10709;49.006;12.100;2023-12-29T15:16:24;49098.66;;;-146.00;92.91
21102;BME280;10709;49.006;12.100;2023-12-29T15:23:34;49114.34;;;-146.00;93.18
21102;BME280;10709;49.006;12.100;2023-12-29T15:27:17;49118.25;;;-146.00;93.38
21102;BME280;10709;49.006;12.100;2023-12-29T15:31:02;49098.66;;;-146.00;94.16
21102;BME280;10709;49.006;12.100;2023-12-29T15:34:09;49077.13;;;-146.00;93.71
21102;BME280;10709;49.006;12.100;2023-12-29T15:37:04;49090.81;;;-146.00;94.09
21102;BME280;10709;49.006;12.100;2023-12-29T15:40:43;49081.03;;;-146.00;93.85
21102;BME280;10709;49.006;12.100;2023-12-29T15:44:20;49084.94;;;-146.00;93.92
21102;BME280;10709;49.006;12.100;2023-12-29T15:47:39;49071.25;;;-146.00;93.81
21102;BME280;10709;49.006;12.100;2023-12-29T15:51:01;49071.25;;;-146.00;94.03
21102;BME280;10709;49.006;12.100;2023-12-29T15:54:16;49098.66;;;-146.00;93.56
21102;BME280;10709;49.006;12.100;2023-12-29T15:57:40;49102.59;;;-146.00;94.14
21102;BME280;10709;49.006;12.100;2023-12-29T16:01:24;49083.00;;;-146.00;94.20
21102;BME280;10709;49.006;12.100;2023-12-29T16:05:31;49086.91;;;-146.00;94.50
21102;BME280;10709;49.006;12.100;2023-12-29T16:09:26;49057.53;;;-146.00;94.19
21102;BME280;10709;49.006;12.100;2023-12-29T16:13:35;49075.16;;;-146.00;93.90
21102;BME280;10709;49.006;12.100;2023-12-29T16:17:22;49090.81;;;-146.00;94.30
21102;BME280;10709;49.006;12.100;2023-12-29T16:21:16;49090.81;;;-146.00;94.12
21102;BME280;10709;49.006;12.100;2023-12-29T16:24:48;49063.41;;;-146.00;93.76
21102;BME280;10709;49.006;12.100;2023-12-29T16:28:41;49071.25;;;-146.00;93.67
21102;BME280;10709;49.006;12.100;2023-12-29T16:39:47;49102.59;;;-146.00;93.42
21102;BME280;10709;49.006;12.100;2023-12-29T16:43:49;49083.00;;;-146.00;93.17
21102;BME280;10709;49.006;12.100;2023-12-29T16:47:41;49088.88;;;-146.00;93.15
21102;BME280;10709;49.006;12.100;2023-12-29T16:55:34;49090.81;;;-146.00;93.09
21102;BME280;10709;49.006;12.100;2023-12-29T17:10:58;49065.34;;;-146.00;93.94
21102;BME280;10709;49.006;12.100;2023-12-29T17:14:37;49081.03;;;-146.00;94.16
21102;BME280;10709;49.006;12.100;2023-12-29T17:18:38;49100.63;;;-146.00;94.05
21102;BME280;10709;49.006;12.100;2023-12-29T17:22:28;49063.41;;;-146.00;94.55
21102;BME280;10709;49.006;12.100;2023-12-29T17:30:16;49088.88;;;-146.00;95.19
21102;BME280;10709;49.006;12.100;2023-12-29T17:37:13;49083.00;;;-146.00;95.60
21102;BME280;10709;49.006;12.100;2023-12-29T17:40:23;49086.91;;;-146.00;95.64
21102;BME280;10709;49.006;12.100;2023-12-29T17:48:01;49079.06;;;-146.00;95.14
21102;BME280;10709;49.006;12.100;2023-12-29T17:51:50;49063.41;;;-146.00;94.78
21102;BME280;10709;49.006;12.100;2023-12-29T17:56:14;49083.00;;;-146.00;94.70
21102;BME280;10709;49.006;12.100;2023-12-29T18:00:15;49086.91;;;-146.00;94.46
21102;BME280;10709;49.006;12.100;2023-12-29T18:04:18;49102.59;;;-146.00;94.02
21102;BME280;10709;49.006;12.100;2023-12-29T18:08:09;49079.06;;;-146.00;93.94
21102;BME280;10709;49.006;12.100;2023-12-29T18:16:10;49065.34;;;-146.00;93.90
21102;BME280;10709;49.006;12.100;2023-12-29T18:20:16;49110.41;;;-146.00;93.36
21102;BME280;10709;49.006;12.100;2023-12-29T18:28:30;49079.06;;;-146.00;93.83
21102;BME280;10709;49.006;12.100;2023-12-29T18:32:29;49083.00;;;-146.00;93.79
21102;BME280;10709;49.006;12.100;2023-12-29T18:35:54;49079.06;;;-146.00;93.67
21102;BME280;10709;49.006;12.100;2023-12-29T18:39:51;49075.16;;;-146.00;93.79
21102;BME280;10709;49.006;12.100;2023-12-29T18:47:39;49092.78;;;-146.00;93.90
21102;BME280;10709;49.006;12.100;2023-12-29T18:50:44;49079.06;;;-146.00;93.36
21102;BME280;10709;49.006;12.100;2023-12-29T19:02:38;49102.59;;;-146.00;93.25
21102;BME280;10709;49.006;12.100;2023-12-29T19:06:21;49098.66;;;-146.00;93.11
21102;BME280;10709;49.006;12.100;2023-12-29T19:09:50;49106.50;;;-146.00;92.80
21102;BME280;10709;49.006;12.100;2023-12-29T19:17:25;49083.00;;;-146.00;91.86
21102;BME280;10709;49.006;12.100;2023-12-29T19:21:11;49065.34;;;-146.00;91.31
21102;BME280;10709;49.006;12.100;2023-12-29T19:28:11;49083.00;;;-146.00;90.09
21102;BME280;10709;49.006;12.100;2023-12-29T19:40:17;49086.91;;;-146.00;89.04
21102;BME280;10709;49.006;12.100;2023-12-29T19:48:05;49079.06;;;-146.00;86.84
21102;BME280;10709;49.006;12.100;2023-12-29T19:51:39;49065.34;;;-146.00;86.81
21102;BME280;10709;49.006;12.100;2023-12-29T19:55:53;49061.44;;;-146.00;86.69
21102;BME280;10709;49.006;12.100;2023-12-29T19:59:25;49081.03;;;-146.00;86.74
21102;BME280;10709;49.006;12.100;2023-12-29T20:06:40;49083.00;;;-146.00;87.56
21102;BME280;10709;49.006;12.100;2023-12-29T20:09:23;49098.66;;;-146.00;88.16
21102;BME280;10709;49.006;12.100;2023-12-29T20:12:44;49100.63;;;-146.00;88.77
21102;BME280;10709;49.006;12.100;2023-12-29T20:15:48;49057.53;;;-146.00;89.15
21102;BME280;10709;49.006;12.100;2023-12-29T20:18:59;49065.34;;;-146.00;89.62
21102;BME280;10709;49.006;12.100;2023-12-29T20:21:51;49106.50;;;-146.00;89.91
21102;BME280;10709;49.006;12.100;2023-12-29T20:24:42;49073.19;;;-146.00;89.90
21102;BME280;10709;49.006;12.100;2023-12-29T20:27:45;49086.91;;;-146.00;90.51
21102;BME280;10709;49.006;12.100;2023-12-29T20:30:12;49051.66;;;-146.00;90.60
21102;BME280;10709;49.006;12.100;2023-12-29T20:32:39;49102.59;;;-146.00;91.10
21102;BME280;10709;49.006;12.100;2023-12-29T20:35:06;49110.41;;;-146.00;91.00
21102;BME280;10709;49.006;12.100;2023-12-29T20:37:35;49098.66;;;-146.00;91.16
21102;BME280;10709;49.006;12.100;2023-12-29T20:40:02;49094.75;;;-146.00;91.54
21102;BME280;10709;49.006;12.100;2023-12-29T20:42:28;49096.72;;;-146.00;91.70
21102;BME280;10709;49.006;12.100;2023-12-29T20:44:56;49106.50;;;-146.00;91.71
21102;BME280;10709;49.006;12.100;2023-12-29T20:47:25;49106.50;;;-146.00;92.15
21102;BME280;10709;49.006;12.100;2023-12-29T20:49:52;49110.41;;;-146.00;92.60
21102;BME280;10709;49.006;12.100;2023-12-29T20:52:19;49098.66;;;-146.00;93.30
21102;BME280;10709;49.006;12.100;2023-12-29T20:54:46;49094.75;;;-146.00;93.49
21102;BME280;10709;49.006;12.100;2023-12-29T20:57:21;49083.00;;;-146.00;93.52
21102;BME280;10709;49.006;12.100;2023-12-29T20:59:58;49090.81;;;-146.00;94.43
21102;BME280;10709;49.006;12.100;2023-12-29T21:02:27;49063.41;;;-146.00;94.86
21102;BME280;10709;49.006;12.100;2023-12-29T21:05:07;49083.00;;;-146.00;94.91
21102;BME280;10709;49.006;12.100;2023-12-29T21:07:37;49047.72;;;-146.00;95.21
21102;BME280;10709;49.006;12.100;2023-12-29T21:10:14;49090.81;;;-146.00;95.72
21102;BME280;10709;49.006;12.100;2023-12-29T21:12:52;49083.00;;;-146.00;95.73
21102;BME280;10709;49.006;12.100;2023-12-29T21:15:37;49079.06;;;-146.00;95.46
21102;BME280;10709;49.006;12.100;2023-12-29T21:18:09;49083.00;;;-146.00;95.65
21102;BME280;10709;49.006;12.100;2023-12-29T21:21:00;49059.47;;;-146.00;95.50
21102;BME280;10709;49.006;12.100;2023-12-29T21:24:45;49071.25;;;-146.00;95.31
21102;BME280;10709;49.006;12.100;2023-12-29T21:27:51;49057.53;;;-146.00;95.17
21102;BME280;10709;49.006;12.100;2023-12-29T21:31:51;49090.81;;;-146.00;96.38
21102;BME280;10709;49.006;12.100;2023-12-29T21:42:02;49071.25;;;-146.00;97.31
21102;BME280;10709;49.006;12.100;2023-12-29T21:44:28;49063.41;;;-146.00;96.94
21102;BME280;10709;49.006;12.100;2023-12-29T21:46:54;49039.88;;;-146.00;96.99
21102;BME280;10709;49.006;12.100;2023-12-29T21:49:21;49067.31;;;-146.00;96.81
21102;BME280;10709;49.006;12.100;2023-12-29T21:51:49;49067.31;;;-146.00;97.03
21102;BME280;10709;49.006;12.100;2023-12-29T21:54:16;49079.06;;;-146.00;96.97
21102;BME280;10709;49.006;12.100;2023-12-29T21:56:45;49051.66;;;-146.00;97.39
21102;BME280;10709;49.006;12.100;2023-12-29T21:59:12;49034.00;;;-146.00;98.20
21102;BME280;10709;49.006;12.100;2023-12-29T22:12:54;49057.53;;;-146.00;98.27
21102;BME280;10709;49.006;12.100;2023-12-29T22:15:21;49047.72;;;-146.00;99.00
21102;BME280;10709;49.006;12.100;2023-12-29T22:17:50;49065.34;;;-146.00;98.65
21102;BME280;10709;49.006;12.100;2023-12-29T22:20:16;49075.16;;;-146.00;98.96
21102;BME280;10709;49.006;12.100;2023-12-29T22:22:43;49065.34;;;-146.00;99.28
21102;BME280;10709;49.006;12.100;2023-12-29T22:25:11;49061.44;;;-146.00;99.03
21102;BME280;10709;49.006;12.100;2023-12-29T22:27:38;49049.69;;;-146.00;98.67
21102;BME280;10709;49.006;12.100;2023-12-29T22:30:05;49024.22;;;-146.00;99.11